»·PEaware :: N653AW KSBP-KBUR

N653AW :: KSBP-KBUR

FLIGHT INFORMATION

Flight Status: Arrived
Operator: Privately registered:
United States
More flights under this callsign
Pilot: Sergei F. (8485)
Aircraft: AIRBUS A320
(A320)
More flights by this aircraft type
Origin: KSBP San Luis Co Regl
United States
Destination: KBUR Bob Hope-Burbank
United States
More flights between these airports :: More routes between these airports
Route: +RZS V386 FIM
File this flight plan on PilotEdge
Remarks:
Altitude:
(Current/Filed)
11,000ft
Speed:
(Current/Filed)
270kts
Departed: 08-Feb-20 06:23 PM
Arrived: 08-Feb-20 06:57 PM
Distance/Time
Traveled:
129nm/0:34
Distance/Time
To Go:
Arrived

Flight Plot

Page will automatically refresh every two minutes.


Map Options




Map Legend


Flown Route
Filed Route
Departure Airport
Arrival Airport
Navaid (VOR, NDB)
Fix

Horizontal Profiles

Position Reports

Time Latitude Longitude Heading Altitude Ground
Speed
08-Feb-20 18:01 35.238329 -120.637462 266 221ft 0kts
08-Feb-20 18:02 35.238329 -120.637462 266 221ft 0kts
08-Feb-20 18:03 35.238329 -120.637462 266 221ft 0kts
08-Feb-20 18:04 35.238329 -120.637462 266 221ft 0kts
08-Feb-20 18:05 35.238329 -120.637462 266 221ft 0kts
08-Feb-20 18:06 35.238329 -120.637462 266 221ft 0kts
08-Feb-20 18:08 35.238329 -120.637462 266 221ft 0kts
08-Feb-20 18:09 35.238329 -120.637462 266 221ft 0kts
08-Feb-20 18:10 35.238329 -120.637462 266 221ft 0kts
08-Feb-20 18:11 35.238332 -120.637377 266 221ft 2kts
08-Feb-20 18:12 35.237958 -120.637018 30 221ft 2kts
08-Feb-20 18:13 35.237449 -120.637383 59 221ft 2kts
08-Feb-20 18:14 35.237403 -120.637971 89 221ft 0kts
08-Feb-20 18:15 35.237403 -120.637970 89 221ft 0kts
08-Feb-20 18:16 35.237403 -120.637970 89 221ft 0kts
08-Feb-20 18:17 35.236967 -120.637736 212 221ft 5kts
08-Feb-20 18:18 35.235800 -120.636410 124 221ft 7kts
08-Feb-20 18:19 35.234376 -120.633915 125 221ft 10kts
08-Feb-20 18:20 35.233368 -120.632362 169 221ft 0kts
08-Feb-20 18:21 35.233368 -120.632362 169 221ft 0kts
08-Feb-20 18:22 35.232962 -120.632546 219 221ft 4kts
08-Feb-20 18:23 35.234205 -120.635506 304 221ft 78kts
08-Feb-20 18:24 35.258635 -120.678083 305 2881ft 179kts
08-Feb-20 18:25 35.289842 -120.732505 305 4984ft 202kts
08-Feb-20 18:26 35.312950 -120.793600 253 6768ft 221kts
08-Feb-20 18:27 35.255485 -120.803961 134 9490ft 277kts
08-Feb-20 18:27 35.210198 -120.740279 130 10986ft 314kts
08-Feb-20 18:28 35.153230 -120.659565 130 11010ft 315kts
08-Feb-20 18:30 35.081484 -120.559233 131 11016ft 350kts
08-Feb-20 18:30 35.027903 -120.484524 131 11026ft 350kts
08-Feb-20 18:31 34.964040 -120.395771 130 11026ft 350kts
08-Feb-20 18:32 34.894457 -120.299528 131 11014ft 416kts
08-Feb-20 18:33 34.819384 -120.195701 131 11014ft 416kts
08-Feb-20 18:34 34.742984 -120.090438 131 11009ft 416kts
08-Feb-20 18:35 34.666076 -119.984838 131 11009ft 416kts
08-Feb-20 18:36 34.589297 -119.879733 131 11000ft 416kts
08-Feb-20 18:37 34.514315 -119.773513 119 10995ft 417kts
08-Feb-20 18:38 34.487581 -119.641571 98 11004ft 377kts
08-Feb-20 18:39 34.468701 -119.529211 98 11000ft 309kts
08-Feb-20 18:40 34.451299 -119.427137 99 10930ft 308kts
08-Feb-20 18:41 34.434594 -119.329702 101 9559ft 303kts
08-Feb-20 18:42 34.417524 -119.230560 101 8190ft 296kts
08-Feb-20 18:43 34.400669 -119.133221 101 8036ft 297kts
08-Feb-20 18:44 34.383756 -119.035978 102 8034ft 297kts
08-Feb-20 18:45 34.367157 -118.940875 102 8039ft 268kts
08-Feb-20 18:46 34.345326 -118.859544 122 7607ft 249kts
08-Feb-20 18:47 34.310500 -118.788669 122 6380ft 243kts
08-Feb-20 18:48 34.277415 -118.720241 122 5513ft 222kts
08-Feb-20 18:49 34.249361 -118.659022 115 4544ft 203kts
08-Feb-20 18:50 34.230180 -118.597602 117 3453ft 187kts
08-Feb-20 18:51 34.215293 -118.544046 110 2610ft 164kts
08-Feb-20 18:52 34.204232 -118.491693 104 2106ft 163kts
08-Feb-20 18:53 34.200381 -118.441879 96 1842ft 137kts
08-Feb-20 18:54 34.198312 -118.397327 94 1258ft 135kts
08-Feb-20 18:55 34.197732 -118.356971 90 715ft 50kts
08-Feb-20 18:56 34.197304 -118.351526 175 702ft 4kts
08-Feb-20 18:57 34.196934 -118.351525 180 702ft 2kts
08-Feb-20 18:58 34.196782 -118.351528 180 702ft 0kts
08-Feb-20 18:59 34.196782 -118.351528 180 702ft 0kts
08-Feb-20 19:00 34.196782 -118.351528 180 702ft 0kts
08-Feb-20 19:01 34.196782 -118.351528 180 702ft 0kts

Navigation Log

Ident Type
Flight plan parsing failed, navigation log unavailable